sensor_id;sensor_type;location;lat;lon;timestamp;pressure;altitude;pressure_sealevel;temperature;humidity
49645;BME280;36494;50.730;-1.932;2023-05-08T00:00:56;101579.14;;;11.85;100.00
49645;BME280;36494;50.730;-1.932;2023-05-08T00:03:18;101577.04;;;11.80;100.00
49645;BME280;36494;50.730;-1.932;2023-05-08T00:05:43;101574.48;;;11.79;100.00
49645;BME280;36494;50.730;-1.932;2023-05-08T00:08:08;101569.08;;;11.85;100.00
49645;BME280;36494;50.730;-1.932;2023-05-08T00:10:33;101567.51;;;11.87;100.00
49645;BME280;36494;50.730;-1.932;2023-05-08T00:12:58;101564.25;;;11.85;100.00
49645;BME280;36494;50.730;-1.932;2023-05-08T00:15:23;101564.42;;;11.87;100.00
49645;BME280;36494;50.730;-1.932;2023-05-08T00:17:48;101565.84;;;11.85;100.00
49645;BME280;36494;50.730;-1.932;2023-05-08T00:20:14;101563.88;;;11.83;100.00
49645;BME280;36494;50.730;-1.932;2023-05-08T00:22:39;101565.75;;;11.82;100.00
49645;BME280;36494;50.730;-1.932;2023-05-08T00:25:05;101565.42;;;11.84;100.00
49645;BME280;36494;50.730;-1.932;2023-05-08T00:27:30;101567.65;;;11.78;100.00
49645;BME280;36494;50.730;-1.932;2023-05-08T00:29:55;101565.83;;;11.82;100.00
49645;BME280;36494;50.730;-1.932;2023-05-08T00:32:21;101562.32;;;11.81;100.00
49645;BME280;36494;50.730;-1.932;2023-05-08T00:34:46;101563.40;;;11.79;100.00
49645;BME280;36494;50.730;-1.932;2023-05-08T00:37:11;101559.54;;;11.79;100.00
49645;BME280;36494;50.730;-1.932;2023-05-08T00:39:37;101558.46;;;11.76;100.00
49645;BME280;36494;50.730;-1.932;2023-05-08T00:42:02;101551.67;;;11.72;100.00
49645;BME280;36494;50.730;-1.932;2023-05-08T00:44:27;101551.19;;;11.73;100.00
49645;BME280;36494;50.730;-1.932;2023-05-08T00:46:53;101551.18;;;11.70;100.00
49645;BME280;36494;50.730;-1.932;2023-05-08T00:49:18;101548.42;;;11.67;100.00
49645;BME280;36494;50.730;-1.932;2023-05-08T00:51:44;101551.49;;;11.67;100.00
49645;BME280;36494;50.730;-1.932;2023-05-08T00:54:08;101555.50;;;11.61;100.00
49645;BME280;36494;50.730;-1.932;2023-05-08T00:56:34;101552.32;;;11.63;100.00
49645;BME280;36494;50.730;-1.932;2023-05-08T00:58:59;101550.13;;;11.62;100.00
49645;BME280;36494;50.730;-1.932;2023-05-08T01:01:24;101551.43;;;11.59;100.00
49645;BME280;36494;50.730;-1.932;2023-05-08T01:03:50;101547.36;;;11.58;100.00
49645;BME280;36494;50.730;-1.932;2023-05-08T01:06:15;101551.12;;;11.57;100.00
49645;BME280;36494;50.730;-1.932;2023-05-08T01:08:42;101553.13;;;11.55;100.00
49645;BME280;36494;50.730;-1.932;2023-05-08T01:11:11;101552.57;;;11.53;100.00
49645;BME280;36494;50.730;-1.932;2023-05-08T01:13:41;101553.20;;;11.54;100.00
49645;BME280;36494;50.730;-1.932;2023-05-08T01:16:04;101552.54;;;11.51;100.00
49645;BME280;36494;50.730;-1.932;2023-05-08T01:18:27;101552.58;;;11.44;100.00
49645;BME280;36494;50.730;-1.932;2023-05-08T01:20:52;101552.15;;;11.37;100.00
49645;BME280;36494;50.730;-1.932;2023-05-08T01:23:30;101548.36;;;11.36;100.00
49645;BME280;36494;50.730;-1.932;2023-05-08T01:25:58;101548.81;;;11.40;100.00
49645;BME280;36494;50.730;-1.932;2023-05-08T01:28:17;101548.37;;;11.42;100.00
49645;BME280;36494;50.730;-1.932;2023-05-08T01:32:56;101543.88;;;11.45;100.00
49645;BME280;36494;50.730;-1.932;2023-05-08T01:35:26;101545.69;;;11.47;100.00
49645;BME280;36494;50.730;-1.932;2023-05-08T01:37:50;101545.23;;;11.46;100.00
49645;BME280;36494;50.730;-1.932;2023-05-08T01:40:18;101542.90;;;11.46;100.00
49645;BME280;36494;50.730;-1.932;2023-05-08T01:42:44;101541.91;;;11.45;100.00
49645;BME280;36494;50.730;-1.932;2023-05-08T01:45:11;101539.90;;;11.43;100.00
49645;BME280;36494;50.730;-1.932;2023-05-08T01:47:29;101537.96;;;11.48;100.00
49645;BME280;36494;50.730;-1.932;2023-05-08T01:49:57;101538.84;;;11.51;100.00
49645;BME280;36494;50.730;-1.932;2023-05-08T01:52:21;101539.53;;;11.50;100.00
49645;BME280;36494;50.730;-1.932;2023-05-08T01:54:47;101539.37;;;11.49;100.00
49645;BME280;36494;50.730;-1.932;2023-05-08T01:57:09;101529.09;;;11.49;100.00
49645;BME280;36494;50.730;-1.932;2023-05-08T01:59:35;101528.61;;;11.55;100.00
49645;BME280;36494;50.730;-1.932;2023-05-08T02:02:01;101530.64;;;11.57;100.00
49645;BME280;36494;50.730;-1.932;2023-05-08T02:04:27;101529.22;;;11.59;100.00
49645;BME280;36494;50.730;-1.932;2023-05-08T02:06:50;101528.79;;;11.62;100.00
49645;BME280;36494;50.730;-1.932;2023-05-08T02:09:15;101529.11;;;11.64;100.00
49645;BME280;36494;50.730;-1.932;2023-05-08T02:11:43;101530.71;;;11.66;100.00
49645;BME280;36494;50.730;-1.932;2023-05-08T02:14:07;101530.94;;;11.58;100.00
49645;BME280;36494;50.730;-1.932;2023-05-08T02:16:33;101528.56;;;11.64;100.00
49645;BME280;36494;50.730;-1.932;2023-05-08T02:18:59;101526.98;;;11.68;100.00
49645;BME280;36494;50.730;-1.932;2023-05-08T02:21:23;101521.91;;;11.68;100.00
49645;BME280;36494;50.730;-1.932;2023-05-08T02:23:49;101520.86;;;11.71;100.00
49645;BME280;36494;50.730;-1.932;2023-05-08T02:26:14;101520.73;;;11.69;100.00
49645;BME280;36494;50.730;-1.932;2023-05-08T02:28:39;101516.42;;;11.73;100.00
49645;BME280;36494;50.730;-1.932;2023-05-08T02:31:04;101515.37;;;11.75;100.00
49645;BME280;36494;50.730;-1.932;2023-05-08T02:33:29;101514.13;;;11.77;100.00
49645;BME280;36494;50.730;-1.932;2023-05-08T02:35:55;101511.95;;;11.72;100.00
49645;BME280;36494;50.730;-1.932;2023-05-08T02:38:20;101510.28;;;11.76;100.00
49645;BME280;36494;50.730;-1.932;2023-05-08T02:40:48;101507.69;;;11.73;100.00
49645;BME280;36494;50.730;-1.932;2023-05-08T02:43:10;101508.67;;;11.76;100.00
49645;BME280;36494;50.730;-1.932;2023-05-08T02:45:40;101508.59;;;11.67;100.00
49645;BME280;36494;50.730;-1.932;2023-05-08T02:48:07;101506.78;;;11.74;100.00
49645;BME280;36494;50.730;-1.932;2023-05-08T02:50:33;101505.20;;;11.73;100.00
49645;BME280;36494;50.730;-1.932;2023-05-08T02:52:57;101506.71;;;11.77;100.00
49645;BME280;36494;50.730;-1.932;2023-05-08T02:55:25;101506.64;;;11.75;100.00
49645;BME280;36494;50.730;-1.932;2023-05-08T02:57:47;101508.87;;;11.67;100.00
49645;BME280;36494;50.730;-1.932;2023-05-08T03:00:13;101510.34;;;11.60;100.00
49645;BME280;36494;50.730;-1.932;2023-05-08T03:02:38;101506.96;;;11.57;100.00
49645;BME280;36494;50.730;-1.932;2023-05-08T03:05:05;101508.65;;;11.63;100.00
49645;BME280;36494;50.730;-1.932;2023-05-08T03:07:26;101507.27;;;11.59;100.00
49645;BME280;36494;50.730;-1.932;2023-05-08T03:09:56;101505.40;;;11.61;100.00
49645;BME280;36494;50.730;-1.932;2023-05-08T03:12:19;101505.67;;;11.61;100.00
49645;BME280;36494;50.730;-1.932;2023-05-08T03:14:49;101502.14;;;11.58;100.00
49645;BME280;36494;50.730;-1.932;2023-05-08T03:17:07;101503.35;;;11.60;100.00
49645;BME280;36494;50.730;-1.932;2023-05-08T03:19:35;101500.54;;;11.57;100.00
49645;BME280;36494;50.730;-1.932;2023-05-08T03:21:58;101502.20;;;11.61;100.00
49645;BME280;36494;50.730;-1.932;2023-05-08T03:24:23;101498.83;;;11.64;100.00
49645;BME280;36494;50.730;-1.932;2023-05-08T03:26:48;101491.18;;;11.62;100.00
49645;BME280;36494;50.730;-1.932;2023-05-08T03:29:14;101489.70;;;11.62;100.00
49645;BME280;36494;50.730;-1.932;2023-05-08T03:31:39;101486.80;;;11.64;100.00
49645;BME280;36494;50.730;-1.932;2023-05-08T03:34:04;101492.24;;;11.64;100.00
49645;BME280;36494;50.730;-1.932;2023-05-08T03:36:29;101494.44;;;11.62;100.00
49645;BME280;36494;50.730;-1.932;2023-05-08T03:38:55;101494.40;;;11.58;100.00
49645;BME280;36494;50.730;-1.932;2023-05-08T03:41:20;101494.60;;;11.61;100.00
49645;BME280;36494;50.730;-1.932;2023-05-08T03:43:46;101492.76;;;11.63;100.00
49645;BME280;36494;50.730;-1.932;2023-05-08T03:46:12;101490.07;;;11.62;100.00
49645;BME280;36494;50.730;-1.932;2023-05-08T03:48:37;101487.39;;;11.65;100.00
49645;BME280;36494;50.730;-1.932;2023-05-08T03:51:03;101485.69;;;11.63;100.00
49645;BME280;36494;50.730;-1.932;2023-05-08T03:53:29;101484.15;;;11.70;100.00
49645;BME280;36494;50.730;-1.932;2023-05-08T03:55:53;101484.66;;;11.73;100.00
49645;BME280;36494;50.730;-1.932;2023-05-08T03:58:23;101486.27;;;11.65;100.00
49645;BME280;36494;50.730;-1.932;2023-05-08T04:00:55;101485.59;;;11.69;100.00
49645;BME280;36494;50.730;-1.932;2023-05-08T04:03:17;101487.92;;;11.61;100.00
49645;BME280;36494;50.730;-1.932;2023-05-08T04:05:38;101490.82;;;11.68;100.00
49645;BME280;36494;50.730;-1.932;2023-05-08T04:08:04;101488.75;;;11.65;100.00
49645;BME280;36494;50.730;-1.932;2023-05-08T04:10:29;101487.87;;;11.65;100.00
49645;BME280;36494;50.730;-1.932;2023-05-08T04:12:58;101487.60;;;11.70;100.00
49645;BME280;36494;50.730;-1.932;2023-05-08T04:15:19;101484.45;;;11.64;100.00
49645;BME280;36494;50.730;-1.932;2023-05-08T04:17:44;101483.73;;;11.71;100.00
49645;BME280;36494;50.730;-1.932;2023-05-08T04:20:10;101481.44;;;11.69;100.00
49645;BME280;36494;50.730;-1.932;2023-05-08T04:22:33;101482.09;;;11.64;100.00
49645;BME280;36494;50.730;-1.932;2023-05-08T04:25:02;101488.25;;;11.61;100.00
49645;BME280;36494;50.730;-1.932;2023-05-08T04:27:24;101491.53;;;11.71;100.00
49645;BME280;36494;50.730;-1.932;2023-05-08T04:29:49;101492.28;;;11.73;100.00
49645;BME280;36494;50.730;-1.932;2023-05-08T04:32:14;101496.14;;;11.75;100.00
49645;BME280;36494;50.730;-1.932;2023-05-08T04:34:39;101498.29;;;11.79;100.00
49645;BME280;36494;50.730;-1.932;2023-05-08T04:37:05;101496.00;;;11.82;100.00
49645;BME280;36494;50.730;-1.932;2023-05-08T04:39:30;101497.09;;;11.82;100.00
49645;BME280;36494;50.730;-1.932;2023-05-08T04:41:55;101501.33;;;11.81;100.00
49645;BME280;36494;50.730;-1.932;2023-05-08T04:44:20;101501.33;;;11.78;100.00
49645;BME280;36494;50.730;-1.932;2023-05-08T04:46:45;101501.69;;;11.81;100.00
49645;BME280;36494;50.730;-1.932;2023-05-08T04:49:10;101499.75;;;11.83;100.00
49645;BME280;36494;50.730;-1.932;2023-05-08T04:51:36;101498.00;;;11.82;100.00
49645;BME280;36494;50.730;-1.932;2023-05-08T04:54:02;101500.40;;;11.84;100.00
49645;BME280;36494;50.730;-1.932;2023-05-08T04:56:28;101498.94;;;11.83;100.00
49645;BME280;36494;50.730;-1.932;2023-05-08T04:58:53;101501.65;;;11.80;100.00
49645;BME280;36494;50.730;-1.932;2023-05-08T05:01:19;101503.66;;;11.84;100.00
49645;BME280;36494;50.730;-1.932;2023-05-08T05:03:44;101505.35;;;11.84;100.00
49645;BME280;36494;50.730;-1.932;2023-05-08T05:06:09;101510.18;;;11.82;100.00
49645;BME280;36494;50.730;-1.932;2023-05-08T05:08:34;101507.09;;;11.84;100.00
49645;BME280;36494;50.730;-1.932;2023-05-08T05:11:00;101512.54;;;11.78;100.00
49645;BME280;36494;50.730;-1.932;2023-05-08T05:13:26;101513.78;;;11.78;100.00
49645;BME280;36494;50.730;-1.932;2023-05-08T05:15:51;101515.25;;;11.74;100.00
49645;BME280;36494;50.730;-1.932;2023-05-08T05:18:16;101516.84;;;11.77;100.00
49645;BME280;36494;50.730;-1.932;2023-05-08T05:20:42;101517.43;;;11.82;100.00
49645;BME280;36494;50.730;-1.932;2023-05-08T05:23:07;101513.81;;;11.77;100.00
49645;BME280;36494;50.730;-1.932;2023-05-08T05:25:33;101514.85;;;11.78;100.00
49645;BME280;36494;50.730;-1.932;2023-05-08T05:27:58;101513.42;;;11.79;100.00
49645;BME280;36494;50.730;-1.932;2023-05-08T05:30:23;101514.94;;;11.75;100.00
49645;BME280;36494;50.730;-1.932;2023-05-08T05:32:48;101514.81;;;11.71;100.00
49645;BME280;36494;50.730;-1.932;2023-05-08T05:35:14;101517.08;;;11.74;100.00
49645;BME280;36494;50.730;-1.932;2023-05-08T05:37:39;101518.19;;;11.76;100.00
49645;BME280;36494;50.730;-1.932;2023-05-08T05:40:05;101517.11;;;11.85;100.00
49645;BME280;36494;50.730;-1.932;2023-05-08T05:42:29;101514.55;;;11.85;100.00
49645;BME280;36494;50.730;-1.932;2023-05-08T05:44:55;101517.07;;;11.88;100.00
49645;BME280;36494;50.730;-1.932;2023-05-08T05:47:20;101518.39;;;11.83;100.00
49645;BME280;36494;50.730;-1.932;2023-05-08T05:49:45;101516.79;;;11.84;100.00
49645;BME280;36494;50.730;-1.932;2023-05-08T05:52:11;101516.13;;;11.80;100.00
49645;BME280;36494;50.730;-1.932;2023-05-08T05:54:36;101514.59;;;11.86;100.00
49645;BME280;36494;50.730;-1.932;2023-05-08T05:57:02;101514.72;;;11.92;100.00
49645;BME280;36494;50.730;-1.932;2023-05-08T05:59:27;101514.44;;;11.85;100.00
49645;BME280;36494;50.730;-1.932;2023-05-08T06:01:53;101515.37;;;11.91;100.00
49645;BME280;36494;50.730;-1.932;2023-05-08T06:04:18;101512.64;;;11.94;100.00
49645;BME280;36494;50.730;-1.932;2023-05-08T06:06:44;101513.13;;;11.95;100.00
49645;BME280;36494;50.730;-1.932;2023-05-08T06:09:09;101513.43;;;11.87;100.00
49645;BME280;36494;50.730;-1.932;2023-05-08T06:11:35;101513.56;;;11.98;100.00
49645;BME280;36494;50.730;-1.932;2023-05-08T06:14:00;101514.69;;;11.90;100.00
49645;BME280;36494;50.730;-1.932;2023-05-08T06:16:26;101515.43;;;11.94;100.00
49645;BME280;36494;50.730;-1.932;2023-05-08T06:18:51;101518.51;;;11.92;100.00
49645;BME280;36494;50.730;-1.932;2023-05-08T06:21:16;101518.33;;;11.96;100.00
49645;BME280;36494;50.730;-1.932;2023-05-08T06:23:42;101520.06;;;11.94;100.00
49645;BME280;36494;50.730;-1.932;2023-05-08T06:26:07;101519.80;;;11.95;100.00
49645;BME280;36494;50.730;-1.932;2023-05-08T06:28:32;101519.20;;;11.82;100.00
49645;BME280;36494;50.730;-1.932;2023-05-08T06:30:57;101519.56;;;11.83;100.00
49645;BME280;36494;50.730;-1.932;2023-05-08T06:33:24;101519.53;;;11.91;100.00
49645;BME280;36494;50.730;-1.932;2023-05-08T06:35:49;101517.19;;;11.85;100.00
49645;BME280;36494;50.730;-1.932;2023-05-08T06:38:14;101521.55;;;11.91;100.00
49645;BME280;36494;50.730;-1.932;2023-05-08T06:40:41;101518.62;;;11.82;100.00
49645;BME280;36494;50.730;-1.932;2023-05-08T06:43:05;101522.65;;;11.81;100.00
49645;BME280;36494;50.730;-1.932;2023-05-08T06:45:31;101521.83;;;11.77;100.00
49645;BME280;36494;50.730;-1.932;2023-05-08T06:47:56;101523.17;;;11.77;100.00
49645;BME280;36494;50.730;-1.932;2023-05-08T06:50:22;101525.28;;;11.83;100.00
49645;BME280;36494;50.730;-1.932;2023-05-08T06:52:47;101524.27;;;11.82;100.00
49645;BME280;36494;50.730;-1.932;2023-05-08T06:55:12;101522.29;;;11.88;100.00
49645;BME280;36494;50.730;-1.932;2023-05-08T06:57:38;101518.82;;;11.81;100.00
49645;BME280;36494;50.730;-1.932;2023-05-08T07:00:04;101520.23;;;11.75;100.00
49645;BME280;36494;50.730;-1.932;2023-05-08T07:02:28;101522.27;;;11.80;100.00
49645;BME280;36494;50.730;-1.932;2023-05-08T07:04:54;101525.89;;;11.79;100.00
49645;BME280;36494;50.730;-1.932;2023-05-08T07:07:20;101526.66;;;11.74;100.00
49645;BME280;36494;50.730;-1.932;2023-05-08T07:09:45;101526.88;;;11.75;100.00
49645;BME280;36494;50.730;-1.932;2023-05-08T07:12:10;101527.11;;;11.76;100.00
49645;BME280;36494;50.730;-1.932;2023-05-08T07:14:35;101529.28;;;11.67;100.00
49645;BME280;36494;50.730;-1.932;2023-05-08T07:17:02;101525.50;;;11.77;100.00
49645;BME280;36494;50.730;-1.932;2023-05-08T07:19:26;101526.98;;;11.66;100.00
49645;BME280;36494;50.730;-1.932;2023-05-08T07:21:52;101528.99;;;11.67;100.00
49645;BME280;36494;50.730;-1.932;2023-05-08T07:24:17;101530.20;;;11.77;100.00
49645;BME280;36494;50.730;-1.932;2023-05-08T07:26:42;101530.74;;;11.82;100.00
49645;BME280;36494;50.730;-1.932;2023-05-08T07:29:07;101533.76;;;11.69;100.00
49645;BME280;36494;50.730;-1.932;2023-05-08T07:31:33;101531.75;;;11.71;100.00
49645;BME280;36494;50.730;-1.932;2023-05-08T07:33:58;101529.64;;;11.78;100.00
49645;BME280;36494;50.730;-1.932;2023-05-08T07:36:23;101528.71;;;11.65;100.00
49645;BME280;36494;50.730;-1.932;2023-05-08T07:38:49;101528.81;;;11.75;100.00
49645;BME280;36494;50.730;-1.932;2023-05-08T07:41:15;101533.00;;;11.80;100.00
49645;BME280;36494;50.730;-1.932;2023-05-08T07:43:41;101531.31;;;11.72;100.00
49645;BME280;36494;50.730;-1.932;2023-05-08T07:46:06;101533.39;;;11.65;100.00
49645;BME280;36494;50.730;-1.932;2023-05-08T07:48:31;101534.98;;;11.58;100.00
49645;BME280;36494;50.730;-1.932;2023-05-08T07:50:56;101530.75;;;11.55;100.00
49645;BME280;36494;50.730;-1.932;2023-05-08T07:53:22;101528.21;;;11.60;100.00
49645;BME280;36494;50.730;-1.932;2023-05-08T07:55:47;101525.18;;;11.63;100.00
49645;BME280;36494;50.730;-1.932;2023-05-08T07:58:13;101524.01;;;11.53;100.00
49645;BME280;36494;50.730;-1.932;2023-05-08T08:00:38;101521.27;;;11.61;100.00
49645;BME280;36494;50.730;-1.932;2023-05-08T08:03:03;101517.60;;;11.57;100.00
49645;BME280;36494;50.730;-1.932;2023-05-08T08:05:28;101515.99;;;11.52;100.00
49645;BME280;36494;50.730;-1.932;2023-05-08T08:07:54;101513.39;;;11.44;100.00
49645;BME280;36494;50.730;-1.932;2023-05-08T08:10:19;101516.64;;;11.53;100.00
49645;BME280;36494;50.730;-1.932;2023-05-08T08:12:44;101521.76;;;11.49;100.00
49645;BME280;36494;50.730;-1.932;2023-05-08T08:15:10;101525.22;;;11.59;100.00
49645;BME280;36494;50.730;-1.932;2023-05-08T08:17:35;101525.17;;;11.54;100.00
49645;BME280;36494;50.730;-1.932;2023-05-08T08:20:01;101527.12;;;11.61;100.00
49645;BME280;36494;50.730;-1.932;2023-05-08T08:22:26;101526.84;;;11.64;100.00
49645;BME280;36494;50.730;-1.932;2023-05-08T08:24:53;101528.23;;;11.68;100.00
49645;BME280;36494;50.730;-1.932;2023-05-08T08:27:17;101526.70;;;11.66;100.00
49645;BME280;36494;50.730;-1.932;2023-05-08T08:29:42;101524.20;;;11.61;100.00
49645;BME280;36494;50.730;-1.932;2023-05-08T08:32:07;101526.07;;;11.55;100.00
49645;BME280;36494;50.730;-1.932;2023-05-08T08:34:33;101527.79;;;11.59;100.00
49645;BME280;36494;50.730;-1.932;2023-05-08T08:36:58;101527.18;;;11.55;100.00
49645;BME280;36494;50.730;-1.932;2023-05-08T08:39:23;101525.14;;;11.66;100.00
49645;BME280;36494;50.730;-1.932;2023-05-08T08:41:48;101521.14;;;11.64;100.00
49645;BME280;36494;50.730;-1.932;2023-05-08T08:44:14;101518.67;;;11.62;100.00
49645;BME280;36494;50.730;-1.932;2023-05-08T08:46:48;101515.40;;;11.59;100.00
49645;BME280;36494;50.730;-1.932;2023-05-08T08:49:07;101518.35;;;11.69;100.00
49645;BME280;36494;50.730;-1.932;2023-05-08T08:51:32;101514.93;;;11.72;100.00
49645;BME280;36494;50.730;-1.932;2023-05-08T08:54:02;101515.62;;;11.72;100.00
49645;BME280;36494;50.730;-1.932;2023-05-08T08:56:22;101516.49;;;11.74;100.00
49645;BME280;36494;50.730;-1.932;2023-05-08T08:58:48;101515.70;;;11.76;100.00
49645;BME280;36494;50.730;-1.932;2023-05-08T09:01:15;101516.72;;;11.80;100.00
49645;BME280;36494;50.730;-1.932;2023-05-08T09:03:36;101516.63;;;11.93;100.00
49645;BME280;36494;50.730;-1.932;2023-05-08T09:06:02;101516.77;;;11.83;100.00
49645;BME280;36494;50.730;-1.932;2023-05-08T09:08:27;101514.70;;;11.91;100.00
49645;BME280;36494;50.730;-1.932;2023-05-08T09:10:54;101512.74;;;11.83;100.00
49645;BME280;36494;50.730;-1.932;2023-05-08T09:13:18;101508.40;;;11.93;100.00
49645;BME280;36494;50.730;-1.932;2023-05-08T09:15:43;101498.47;;;11.87;100.00
49645;BME280;36494;50.730;-1.932;2023-05-08T09:18:08;101491.37;;;11.98;100.00
49645;BME280;36494;50.730;-1.932;2023-05-08T09:20:34;101493.93;;;11.94;100.00
49645;BME280;36494;50.730;-1.932;2023-05-08T09:23:00;101491.49;;;12.04;100.00
49645;BME280;36494;50.730;-1.932;2023-05-08T09:25:25;101484.14;;;12.07;100.00
49645;BME280;36494;50.730;-1.932;2023-05-08T09:27:50;101479.27;;;11.97;100.00
49645;BME280;36494;50.730;-1.932;2023-05-08T09:30:15;101478.37;;;11.77;100.00
49645;BME280;36494;50.730;-1.932;2023-05-08T09:32:42;101472.70;;;11.92;100.00
49645;BME280;36494;50.730;-1.932;2023-05-08T09:35:08;101461.99;;;11.99;100.00
49645;BME280;36494;50.730;-1.932;2023-05-08T09:37:31;101468.13;;;12.03;100.00
49645;BME280;36494;50.730;-1.932;2023-05-08T09:42:22;101466.58;;;12.09;100.00
49645;BME280;36494;50.730;-1.932;2023-05-08T09:44:49;101474.47;;;12.10;100.00
49645;BME280;36494;50.730;-1.932;2023-05-08T09:47:15;101483.53;;;12.14;100.00
49645;BME280;36494;50.730;-1.932;2023-05-08T09:49:39;101477.77;;;12.01;100.00
49645;BME280;36494;50.730;-1.932;2023-05-08T09:52:04;101479.49;;;12.19;100.00
49645;BME280;36494;50.730;-1.932;2023-05-08T09:54:30;101477.11;;;12.02;100.00
49645;BME280;36494;50.730;-1.932;2023-05-08T09:56:55;101479.13;;;12.21;100.00
49645;BME280;36494;50.730;-1.932;2023-05-08T09:59:23;101472.59;;;12.16;100.00
49645;BME280;36494;50.730;-1.932;2023-05-08T10:01:47;101466.60;;;12.09;100.00
49645;BME280;36494;50.730;-1.932;2023-05-08T10:04:13;101463.23;;;11.96;100.00
49645;BME280;36494;50.730;-1.932;2023-05-08T10:06:38;101461.17;;;12.06;100.00
49645;BME280;36494;50.730;-1.932;2023-05-08T10:09:08;101460.59;;;12.07;100.00
49645;BME280;36494;50.730;-1.932;2023-05-08T10:11:28;101456.29;;;12.09;100.00
49645;BME280;36494;50.730;-1.932;2023-05-08T10:13:54;101458.12;;;12.07;100.00
49645;BME280;36494;50.730;-1.932;2023-05-08T10:16:19;101460.90;;;12.09;100.00
49645;BME280;36494;50.730;-1.932;2023-05-08T10:18:46;101465.59;;;12.10;100.00
49645;BME280;36494;50.730;-1.932;2023-05-08T10:21:10;101458.85;;;11.96;100.00
49645;BME280;36494;50.730;-1.932;2023-05-08T10:23:36;101467.57;;;11.94;100.00
49645;BME280;36494;50.730;-1.932;2023-05-08T10:26:06;101468.38;;;11.99;100.00
49645;BME280;36494;50.730;-1.932;2023-05-08T10:28:31;101467.49;;;11.96;100.00
49645;BME280;36494;50.730;-1.932;2023-05-08T10:30:53;101468.83;;;11.78;100.00
49645;BME280;36494;50.730;-1.932;2023-05-08T10:33:19;101467.12;;;11.80;100.00
49645;BME280;36494;50.730;-1.932;2023-05-08T10:35:44;101463.01;;;11.84;100.00
49645;BME280;36494;50.730;-1.932;2023-05-08T10:38:08;101467.55;;;11.68;100.00
49645;BME280;36494;50.730;-1.932;2023-05-08T10:40:33;101460.36;;;11.85;100.00
49645;BME280;36494;50.730;-1.932;2023-05-08T10:42:58;101461.24;;;11.81;100.00
49645;BME280;36494;50.730;-1.932;2023-05-08T10:45:23;101465.65;;;11.78;100.00
49645;BME280;36494;50.730;-1.932;2023-05-08T10:47:56;101464.57;;;11.74;100.00
49645;BME280;36494;50.730;-1.932;2023-05-08T10:50:26;101470.60;;;11.75;100.00
49645;BME280;36494;50.730;-1.932;2023-05-08T10:52:45;101469.15;;;11.77;100.00
49645;BME280;36494;50.730;-1.932;2023-05-08T10:55:15;101468.16;;;11.77;100.00
49645;BME280;36494;50.730;-1.932;2023-05-08T10:57:30;101464.02;;;11.81;100.00
49645;BME280;36494;50.730;-1.932;2023-05-08T10:59:55;101457.46;;;11.81;100.00
49645;BME280;36494;50.730;-1.932;2023-05-08T11:02:25;101457.37;;;11.77;100.00
49645;BME280;36494;50.730;-1.932;2023-05-08T11:04:46;101456.18;;;11.83;100.00
49645;BME280;36494;50.730;-1.932;2023-05-08T11:07:11;101466.66;;;11.80;100.00
49645;BME280;36494;50.730;-1.932;2023-05-08T11:09:46;101476.94;;;11.82;100.00
49645;BME280;36494;50.730;-1.932;2023-05-08T11:12:06;101482.71;;;11.80;100.00
49645;BME280;36494;50.730;-1.932;2023-05-08T11:14:28;101482.80;;;11.80;100.00
49645;BME280;36494;50.730;-1.932;2023-05-08T11:17:03;101484.81;;;11.86;100.00
49645;BME280;36494;50.730;-1.932;2023-05-08T11:19:19;101487.00;;;11.81;100.00
49645;BME280;36494;50.730;-1.932;2023-05-08T11:24:09;101485.56;;;11.68;100.00
49645;BME280;36494;50.730;-1.932;2023-05-08T11:26:38;101488.44;;;11.77;100.00
49645;BME280;36494;50.730;-1.932;2023-05-08T11:28:59;101485.78;;;11.80;100.00
49645;BME280;36494;50.730;-1.932;2023-05-08T11:33:51;101478.10;;;11.83;100.00
49645;BME280;36494;50.730;-1.932;2023-05-08T11:36:18;101478.06;;;11.73;100.00
49645;BME280;36494;50.730;-1.932;2023-05-08T11:38:42;101469.25;;;11.73;100.00
49645;BME280;36494;50.730;-1.932;2023-05-08T11:41:07;101469.36;;;11.81;100.00
49645;BME280;36494;50.730;-1.932;2023-05-08T11:43:50;101462.78;;;11.81;100.00
49645;BME280;36494;50.730;-1.932;2023-05-08T11:45:59;101453.16;;;11.61;100.00
49645;BME280;36494;50.730;-1.932;2023-05-08T11:48:23;101447.33;;;11.68;100.00
49645;BME280;36494;50.730;-1.932;2023-05-08T11:50:48;101440.42;;;11.68;100.00
49645;BME280;36494;50.730;-1.932;2023-05-08T11:53:13;101442.20;;;11.70;100.00
49645;BME280;36494;50.730;-1.932;2023-05-08T11:55:39;101443.83;;;11.84;100.00
49645;BME280;36494;50.730;-1.932;2023-05-08T11:58:10;101443.62;;;11.92;100.00
49645;BME280;36494;50.730;-1.932;2023-05-08T12:00:30;101439.13;;;11.86;100.00
49645;BME280;36494;50.730;-1.932;2023-05-08T12:02:55;101439.39;;;11.88;100.00
49645;BME280;36494;50.730;-1.932;2023-05-08T12:05:26;101438.56;;;11.90;100.00
49645;BME280;36494;50.730;-1.932;2023-05-08T12:07:46;101435.02;;;11.84;100.00
49645;BME280;36494;50.730;-1.932;2023-05-08T12:10:11;101432.88;;;11.75;100.00
49645;BME280;36494;50.730;-1.932;2023-05-08T12:12:37;101432.13;;;11.78;100.00
49645;BME280;36494;50.730;-1.932;2023-05-08T12:15:05;101433.93;;;11.86;100.00
49645;BME280;36494;50.730;-1.932;2023-05-08T12:17:27;101441.08;;;11.96;100.00
49645;BME280;36494;50.730;-1.932;2023-05-08T12:19:54;101437.12;;;12.05;100.00
49645;BME280;36494;50.730;-1.932;2023-05-08T12:22:18;101428.71;;;12.01;100.00
49645;BME280;36494;50.730;-1.932;2023-05-08T12:24:44;101435.07;;;11.83;100.00
49645;BME280;36494;50.730;-1.932;2023-05-08T12:27:11;101426.12;;;11.99;100.00
49645;BME280;36494;50.730;-1.932;2023-05-08T12:29:35;101424.10;;;12.08;100.00